Details From LFOE - FAUVILLE
To LFQB - Troyes Barberey
Flight Number -
Tags generated
Created
Modified
Stats Distance 119 nm / 220 km
Max Altitude 2,600 ft / 792 m
Waypoints 3
Social Downloads 0
Likes 0
Share VATSIM

Download

Looking for another format? Having issues loading an existing format? Contact us
Advertisement - Login to hide

Notes

Basic altitude profile: - Ascent Rate: 2500ft/min - Ascent Speed: 250kts - Cruise Altitude: 35000ft - Cruise Speed: 420kts - Descent Rate: 1500ft/min - Descent Speed: 250kts Options: - Use NATs: yes - Use PACOTS: yes - Use low airways: yes - Use high airways: yes

Route

LFOE INKAK LFQB

ID Type Via Altitude Latitude Longitude Leg Dist Tot Dist Heading (true) Name
O LFOE APT - 0 ft / 0 m 49.02867˚ 1.21987˚ - 0 nm - FAUVILLE
INKAK FIX - 2,600 ft / 792 m 48.39972˚ 3.72861˚ 106 nm 106 nm 110° / 112° -
O LFQB APT - 0 ft / 0 m 48.32088˚ 4.01385˚ 12 nm 118 nm 112° / 113° Troyes Barberey

Altitude Profile

Advertisement - Login to hide

LFOE

Details ICAO LFOE
Name FAUVILLE
Region France
Timezone Europe/Paris (UTC+1.0)
Stats Elevation 464 ft / 141 m (AMSL)
Location 49.028669° 1.219866°
Runways 1
Magnetic Variation 0.226° E

METAR

LFOE 170430Z AUTO 27006KT 4400 BR FEW018 M00/M01 Q1024

Decode

TAF

TAF TAF LFOE 170200Z 1703/1803 27006KT 9999 FEW030 PROB40 TEMPO 1704/1707 4000 BR BECMG 1718/1720 20010KT BKN005 TEMPO 1720/1803 3000 RADZ BKN003

Decode

Departure Runways

ID Width Length Bearing (true) Bearing (mag) Surface Threshold Offset Overrun Length
04 148 ft / 45 m 9,836 ft / 2,998 m 39.78° 39.55° Asphalt 0 ft / 0 m 0 ft / 0 m
22 148 ft / 45 m 9,836 ft / 2,998 m 219.80° 219.57° Asphalt 0 ft / 0 m 0 ft / 0 m

LFQB

Details ICAO LFQB (QYR)
Name Troyes Barberey
Region France
Timezone Europe/Paris (UTC+1.0)
Stats Elevation 388 ft / 118 m (AMSL)
Location 48.320883° 4.013846°
Runways 3
Magnetic Variation 1.109° E

METAR

LFQB 170430Z AUTO VRB02KT 9999 BKN010 02/01 Q1023

Decode

TAF

Not found

Destination Runways

ID Width Length Bearing (true) Bearing (mag) Surface Threshold Offset Overrun Length
05 328 ft / 100 m 2,651 ft / 808 m 51.53° 50.42° Grass 426 ft / 130 m 0 ft / 0 m
18 98 ft / 30 m 5,413 ft / 1,650 m 173.77° 172.66° Asphalt 0 ft / 0 m 0 ft / 0 m
18R 328 ft / 100 m 2,958 ft / 902 m 173.74° 172.63° Grass 0 ft / 0 m 0 ft / 0 m
23 328 ft / 100 m 2,651 ft / 808 m 231.53° 230.42° Grass 0 ft / 0 m 0 ft / 0 m
36 98 ft / 30 m 5,413 ft / 1,650 m 353.77° 352.66° Asphalt 377 ft / 115 m 0 ft / 0 m
36L 328 ft / 100 m 2,958 ft / 902 m 353.74° 352.63° Grass 0 ft / 0 m 0 ft / 0 m

Approach Navaids

Runway Type Ident Frequency Range Bearing (true) Bearing (mag) Slope Elevation
18 Localiser TY 111.15 MHz 18 nm / 33 km 173.77° 172.66° - 388 ft / 118 m (AMSL)
18 Glidescope TY 111.15 MHz 10 nm / 19 km 173.77° 172.66° 3.50° 388 ft / 118 m (AMSL)
18 DME TY 111.15 MHz 18 nm / 33 km - - - 388 ft / 118 m (AMSL)

Popular Alternatives